Taylors Island, Maryland
Current Conditions -  °F | °C
As of 4:52 AM on Friday 31 Oct 2014 (Local Time) from KNHK Reporting Station
Clear Clear  
Wind Chill:   Ceiling: Unl
Heat Index:   Visibility: 10mi
Dew Point:   Wind: 6mph
Humidity: 74%   Direction: 80°E
Pressure: 30"   Gusts: NA
Location:  38.47°N, 76.3°W
Report Text: KNHK 310852Z AUTO 08005KT 10SM CLR 08/04 A3000 RMK AO2 SLP160 T00830039 55002
Loading
Personal Weather Stations






























Interactive Weather Map
Tropical Storm Tracking
New forecast layout! Learn more

10-Day Weather Forecast

Advertisements
Track Severe Weather on mobile